Fort Collins, CO (80524)

12:04 PM MDT op 31 maart 2015 (GMT -0600)
Hearthfire Drive | | Change Station
CLOSE
Current Station
Persoonlijk weerstation
Location: Fort Collins, CO
Geometrische hoogte: 5121 ft
Nabije weerstations

Hoogte 5121 ft 40.63 °N, 105.05 °W | Updated 15 seconds ago

Helder
Helder
69.6 °F
Voelt als 69.6 °F
N
4.2
Wind Variabel Wind van ZZO
Gusts 4.9 mijl/u

Vandaag
Hoog -- | Laag -- °F
--% Kans op neerslag
Gisteren
Hoog -- | Laag -- °F
Precip. -- inches
6:45 AM 7:23 PM
Wassende maan, 88% visible
Druk 30.02 inches
Zicht 10.0 mijlen
Wolken Helder
Dauwpunt 17 °F
Vochtigheid 13%
Neerslag 0.00 inches
Dikte sneeuw Niet beschikbaar.
UV 5.0 van de 12
Pollen 9.70 van de 12
Luchtkwaliteit Niet beschikbaar.
Flu Activity Niet beschikbaar.
METAR KFNL 311755Z AUTO 14007KT 10SM CLR 21/M02 A3002 RMK AO1 10210 20030 57020

More Conditions Fewer Conditions

Druk 30.02 inches
Zicht 10.0 mijlen
Wolken Helder
Dauwpunt 17 °F
Vochtigheid 13%
Neerslag 0.00 inches
Dikte sneeuw Niet beschikbaar.
UV 5.0 van de 12
Pollen 9.70 van de 12
Luchtkwaliteit Niet beschikbaar.
Flu Activity Niet beschikbaar.
METAR KFNL 311755Z AUTO 14007KT 10SM CLR 21/M02 A3002 RMK AO1 10210 20030 57020

More Conditions Fewer Conditions

10-Day Weather Forecast

Almanac

Astronomie

Mar. 31, 2015 Opkomst Ondergang
Werkelijke tijd
Burgerlijke schemering
Nautische schemering
Astronomische schemering
Maan
Golflengte van het zichtbare licht
Daglengte
Tomorrow will be .
, % of the Moon is Illuminated

Extremen vandaag

State Highs State Lows

Community

WunderPhotos

Upload Photos

1,809,786 foto’s ge-upload!

WunderBlogs® & News

Nearby

Luchtkwaliteit

  Luchtkwaliteit LK-index Verontreinigende stof
Not available.

Dikte sneeuw

Station Depth Geometrische hoogte

Aardbevingen

Stad Distance Mag. Time & Date
Minimum magnitude displayed is 2.5.

Watertemperatuur langs de kust

Plaats Temperatuur

Stations

Nabije weerstations

Locatie station Temp. Gevoelstemperatuur Dauwpunt Vochtigheid Wind Precip. Hoogte Geactualiseerd Type